createdAt,value
2018-04-15T00:00:24.462Z,100481.71
2018-04-15T00:02:52.076Z,100484.19
2018-04-15T00:05:19.639Z,100486.42
2018-04-15T00:07:47.262Z,100486.77
2018-04-15T00:10:14.894Z,100480.78
2018-04-15T00:12:42.461Z,100483.58
2018-04-15T00:15:10.081Z,100490.50
2018-04-15T00:17:37.648Z,100485.16
2018-04-15T00:20:05.278Z,100478.86
2018-04-15T00:22:32.858Z,100480.67
2018-04-15T00:25:00.424Z,100470.40
2018-04-15T00:27:28.060Z,100475.05
2018-04-15T00:29:55.624Z,100472.92
2018-04-15T00:32:23.189Z,100469.22
2018-04-15T00:34:50.759Z,100470.41
2018-04-15T00:37:18.323Z,100481.47
2018-04-15T00:39:45.888Z,100477.66
2018-04-15T00:42:13.519Z,100475.89
2018-04-15T00:44:41.149Z,100471.50
2018-04-15T00:47:08.716Z,100471.70
2018-04-15T00:49:36.346Z,100478.85
2018-04-15T00:52:03.985Z,100478.33
2018-04-15T00:54:31.533Z,100479.64
2018-04-15T00:56:59.146Z,100478.09
2018-04-15T00:59:26.722Z,100477.25
2018-04-15T01:01:54.352Z,100476.73
2018-04-15T01:04:21.920Z,100470.75
2018-04-15T01:06:49.601Z,100468.15
2018-04-15T01:09:17.223Z,100463.71
2018-04-15T01:11:44.787Z,100460.17
2018-04-15T01:14:12.424Z,100463.50
2018-04-15T01:16:39.992Z,100461.36
2018-04-15T01:19:07.564Z,100451.89
2018-04-15T01:21:35.140Z,100456.27
2018-04-15T01:24:02.821Z,100454.32
2018-04-15T01:26:30.440Z,100457.06
2018-04-15T01:28:58.069Z,100452.74
2018-04-15T01:31:25.700Z,100451.49
2018-04-15T01:33:53.320Z,100449.01
2018-04-15T01:36:20.901Z,100446.66
2018-04-15T01:38:48.504Z,100451.04
2018-04-15T01:41:16.185Z,100441.51
2018-04-15T01:43:43.759Z,100442.86
2018-04-15T01:46:11.382Z,100442.19
2018-04-15T01:48:38.959Z,100440.71
2018-04-15T01:51:06.544Z,100434.64
2018-04-15T01:53:34.177Z,100439.63
2018-04-15T01:56:01.743Z,100439.80
2018-04-15T01:58:29.429Z,100446.42
2018-04-15T02:00:57.052Z,100443.23
2018-04-15T02:03:24.613Z,100441.45
2018-04-15T02:05:52.251Z,100437.66
2018-04-15T02:08:19.814Z,100438.84
2018-04-15T02:10:47.389Z,100441.61
2018-04-15T02:13:15.058Z,100439.76
2018-04-15T02:15:42.671Z,100432.05
2018-04-15T02:18:10.236Z,100441.31
2018-04-15T02:20:37.800Z,100439.38
2018-04-15T02:23:05.442Z,100445.58
2018-04-15T02:25:33.012Z,100444.31
2018-04-15T02:28:00.657Z,100444.14
2018-04-15T02:30:28.259Z,100431.84
2018-04-15T02:32:55.938Z,100435.12
2018-04-15T02:35:23.544Z,100438.08
2018-04-15T02:37:51.189Z,100431.20
2018-04-15T02:40:18.760Z,100438.64
2018-04-15T02:42:46.433Z,100443.78
2018-04-15T02:45:14.068Z,100436.58
2018-04-15T02:47:41.637Z,100444.33
2018-04-15T02:50:09.313Z,100444.75
2018-04-15T02:52:36.899Z,100441.30
2018-04-15T02:55:04.529Z,100451.02
2018-04-15T02:57:32.112Z,100448.84
2018-04-15T02:59:59.738Z,100457.52
2018-04-15T03:02:27.395Z,100458.05
2018-04-15T03:04:54.963Z,100457.30
2018-04-15T03:07:22.651Z,100455.87
2018-04-15T03:09:50.224Z,100462.22
2018-04-15T03:12:17.786Z,100465.25
2018-04-15T03:14:45.357Z,100466.12
2018-04-15T03:17:12.920Z,100469.83
2018-04-15T03:19:40.499Z,100474.45
2018-04-15T03:22:08.080Z,100475.91
2018-04-15T03:24:35.712Z,100480.80
2018-04-15T03:27:03.276Z,100478.69
2018-04-15T03:29:30.839Z,100484.51
2018-04-15T03:31:58.481Z,100477.59
2018-04-15T03:34:26.053Z,100476.84
2018-04-15T03:36:53.628Z,100480.55
2018-04-15T03:39:21.191Z,100481.47
2018-04-15T03:41:48.813Z,100483.25
2018-04-15T03:44:16.447Z,100483.05
2018-04-15T03:46:44.073Z,100484.54
2018-04-15T03:49:11.705Z,100481.94
2018-04-15T03:51:39.328Z,100480.72
2018-04-15T03:54:06.900Z,100478.95
2018-04-15T03:56:34.464Z,100480.02
2018-04-15T03:59:02.085Z,100484.06
2018-04-15T04:01:29.652Z,100486.39
2018-04-15T04:03:57.215Z,100487.86
2018-04-15T04:06:24.784Z,100491.78
2018-04-15T04:08:52.419Z,100495.15
2018-04-15T04:11:20.052Z,100489.71
2018-04-15T04:13:47.644Z,100492.83
2018-04-15T04:16:15.298Z,100493.63
2018-04-15T04:21:58.276Z,100493.41
2018-04-15T04:24:37.370Z,100490.36
2018-04-15T04:27:04.996Z,100499.09
2018-04-15T04:29:32.639Z,100498.22
2018-04-15T04:32:00.260Z,100492.58
2018-04-15T04:34:27.820Z,100489.18
2018-04-15T04:36:55.380Z,100489.81
2018-04-15T04:39:22.956Z,100498.59
2018-04-15T04:41:50.573Z,100498.00
2018-04-15T04:44:18.296Z,100497.59
2018-04-15T04:46:45.857Z,100500.88
2018-04-15T04:49:13.457Z,100506.39
2018-04-15T04:51:41.038Z,100502.02
2018-04-15T04:54:08.678Z,100512.57
2018-04-15T04:56:36.366Z,100505.37
2018-04-15T04:59:03.990Z,100506.76
2018-04-15T05:01:31.620Z,100508.70
2018-04-15T05:03:59.184Z,100512.50
2018-04-15T05:06:26.748Z,100515.03
2018-04-15T05:08:54.334Z,100514.55
2018-04-15T05:11:21.953Z,100515.73
2018-04-15T05:13:49.520Z,100523.00
2018-04-15T05:16:17.145Z,100521.45
2018-04-15T05:18:44.821Z,100519.49
2018-04-15T05:21:12.440Z,100520.08
2018-04-15T05:23:40.009Z,100525.05
2018-04-15T05:26:07.577Z,100512.92
2018-04-15T05:28:35.182Z,100509.01
2018-04-15T05:31:02.766Z,100512.16
2018-04-15T05:33:30.392Z,100517.27
2018-04-15T05:35:58.013Z,100524.47
2018-04-15T05:38:25.576Z,100516.23
2018-04-15T05:40:53.145Z,100515.36
2018-04-15T05:43:20.716Z,100518.53
2018-04-15T05:45:48.317Z,100511.76
2018-04-15T05:48:15.880Z,100516.61
2018-04-15T05:50:43.503Z,100518.74
2018-04-15T05:53:11.125Z,100523.56
2018-04-15T05:55:38.757Z,100512.09
2018-04-15T05:58:06.320Z,100515.88
2018-04-15T06:00:33.958Z,100515.51
2018-04-15T06:03:01.585Z,100512.76
2018-04-15T06:05:29.164Z,100517.07
2018-04-15T06:07:56.795Z,100512.50
2018-04-15T06:10:24.434Z,100519.27
2018-04-15T06:12:52.005Z,100517.86
2018-04-15T06:15:19.571Z,100519.38
2018-04-15T06:17:47.144Z,100521.78
2018-04-15T06:20:14.704Z,100532.78
2018-04-15T06:22:42.279Z,100534.45
2018-04-15T06:25:09.860Z,100544.09
2018-04-15T06:27:37.476Z,100541.98
2018-04-15T06:30:05.083Z,100532.13
2018-04-15T06:32:32.644Z,100539.23
2018-04-15T06:35:00.212Z,100541.40
2018-04-15T06:37:27.786Z,100546.31
2018-04-15T06:39:55.368Z,100553.77
2018-04-15T06:42:22.994Z,100542.52
2018-04-15T06:44:50.713Z,100544.42
2018-04-15T06:47:18.355Z,100544.05
2018-04-15T06:49:45.916Z,100542.54
2018-04-15T06:52:13.547Z,100546.39
2018-04-15T06:54:41.171Z,100549.86
2018-04-15T06:57:08.746Z,100553.92
2018-04-15T06:59:36.368Z,100550.58
2018-04-15T07:02:04.000Z,100557.08
2018-04-15T07:04:31.630Z,100556.67
2018-04-15T07:06:59.188Z,100557.95
2018-04-15T07:09:26.783Z,100567.88
2018-04-15T07:11:55.280Z,100569.29
2018-04-15T07:14:22.861Z,100565.16
2018-04-15T07:16:50.440Z,100573.86
2018-04-15T07:19:18.061Z,100568.20
2018-04-15T07:21:45.678Z,100574.00
2018-04-15T07:24:13.228Z,100569.80
2018-04-15T07:26:40.789Z,100570.51
2018-04-15T07:29:08.413Z,100568.23
2018-04-15T07:31:35.981Z,100568.86
2018-04-15T07:34:03.537Z,100568.70
2018-04-15T07:36:31.249Z,100560.14
2018-04-15T07:38:58.775Z,100564.24
2018-04-15T07:41:26.430Z,100558.63
2018-04-15T07:43:54.002Z,100561.33
2018-04-15T07:46:21.629Z,100567.41
2018-04-15T07:48:49.254Z,100552.72
2018-04-15T07:51:16.949Z,100554.98
2018-04-15T07:53:44.573Z,100553.52
2018-04-15T07:56:12.148Z,100561.47
2018-04-15T07:58:39.792Z,100561.56
2018-04-15T08:01:07.366Z,100563.03
2018-04-15T08:03:34.926Z,100560.98
2018-04-15T08:06:02.565Z,100565.73
2018-04-15T08:08:30.210Z,100565.84
2018-04-15T08:10:57.904Z,100563.03
2018-04-15T08:13:25.542Z,100561.23
2018-04-15T08:15:53.179Z,100565.87
2018-04-15T08:18:20.830Z,100567.75
2018-04-15T08:20:48.461Z,100570.55
2018-04-15T08:23:16.041Z,100568.11
2018-04-15T08:25:43.608Z,100563.77
2018-04-15T08:28:11.230Z,100560.17
2018-04-15T08:30:38.857Z,100565.52
2018-04-15T08:33:06.500Z,100567.62
2018-04-15T08:35:34.080Z,100564.28
2018-04-15T08:38:01.660Z,100561.54
2018-04-15T08:40:29.297Z,100562.63
2018-04-15T08:42:56.857Z,100554.21
2018-04-15T08:45:24.536Z,100560.47
2018-04-15T08:47:52.183Z,100557.64
2018-04-15T08:50:19.810Z,100564.55
2018-04-15T08:52:47.385Z,100563.83
2018-04-15T08:55:14.954Z,100558.47
2018-04-15T08:57:42.509Z,100551.52
2018-04-15T09:00:10.076Z,100548.99
2018-04-15T09:02:37.775Z,100555.02
2018-04-15T09:05:05.353Z,100550.89
2018-04-15T09:07:32.940Z,100549.70
2018-04-15T09:10:00.570Z,100545.78
2018-04-15T09:12:28.176Z,100541.07
2018-04-15T09:14:55.747Z,100533.79
2018-04-15T09:17:23.309Z,100530.36
2018-04-15T09:19:50.932Z,100532.31
2018-04-15T09:22:18.508Z,100531.53
2018-04-15T09:24:46.143Z,100528.00
2018-04-15T09:27:13.720Z,100530.80
2018-04-15T09:29:41.345Z,100522.32
2018-04-15T09:32:08.930Z,100518.72
2018-04-15T09:34:36.554Z,100517.15
2018-04-15T09:37:04.197Z,100515.13
2018-04-15T09:39:31.760Z,100520.84
2018-04-15T09:41:59.383Z,100524.13
2018-04-15T09:44:26.984Z,100511.22
2018-04-15T09:46:54.561Z,100505.09
2018-04-15T09:49:22.132Z,100523.62
2018-04-15T09:51:49.688Z,100511.82
2018-04-15T09:54:17.374Z,100507.98
2018-04-15T09:56:44.936Z,100501.06
2018-04-15T09:59:12.578Z,100490.55
2018-04-15T10:01:40.153Z,100485.71
2018-04-15T10:04:07.717Z,100482.75
2018-04-15T10:06:35.392Z,100477.23
2018-04-15T10:09:02.980Z,100468.25
2018-04-15T10:11:30.604Z,100459.49
2018-04-15T10:13:58.255Z,100458.80
2018-04-15T10:16:25.892Z,100453.44
2018-04-15T10:18:53.460Z,100448.75
2018-04-15T10:21:21.025Z,100455.66
2018-04-15T10:23:48.590Z,100458.29
2018-04-15T10:26:16.152Z,100449.52
2018-04-15T10:28:43.714Z,100445.84
2018-04-15T10:31:11.361Z,100444.13
2018-04-15T10:33:38.961Z,100441.16
2018-04-15T10:36:06.516Z,100432.45
2018-04-15T10:38:34.088Z,100431.59
2018-04-15T10:41:01.709Z,100429.87
2018-04-15T10:43:29.392Z,100432.05
2018-04-15T10:45:56.959Z,100419.78
2018-04-15T10:48:24.596Z,100436.06
2018-04-15T10:50:52.204Z,100427.69
2018-04-15T10:53:19.808Z,100431.84
2018-04-15T10:55:47.439Z,100424.05
2018-04-15T10:58:17.768Z,100422.54
2018-04-15T11:00:45.397Z,100431.64
2018-04-15T11:03:13.037Z,100426.44
2018-04-15T11:05:40.619Z,100418.96
2018-04-15T11:08:08.240Z,100427.03
2018-04-15T11:10:35.800Z,100427.16
2018-04-15T11:13:03.368Z,100427.30
2018-04-15T11:15:30.949Z,100415.89
2018-04-15T11:17:58.516Z,100408.81
2018-04-15T11:20:26.084Z,100421.13
2018-04-15T11:22:53.667Z,100420.97
2018-04-15T11:25:21.288Z,100419.63
2018-04-15T11:27:48.852Z,100416.69
2018-04-15T11:30:16.424Z,100413.03
2018-04-15T11:32:43.988Z,100421.30
2018-04-15T11:35:11.545Z,100409.17
2018-04-15T11:37:39.115Z,100419.67
2018-04-15T11:40:06.693Z,100425.76
2018-04-15T11:42:34.362Z,100413.34
2018-04-15T11:45:01.982Z,100415.67
2018-04-15T11:47:29.629Z,100409.27
2018-04-15T11:49:57.201Z,100403.56
2018-04-15T11:52:24.771Z,100411.64
2018-04-15T11:54:52.336Z,100406.18
2018-04-15T11:57:19.892Z,100400.38
2018-04-15T11:59:47.525Z,100406.34
2018-04-15T12:02:15.107Z,100400.09
2018-04-15T12:04:42.686Z,100394.19
2018-04-15T12:07:10.252Z,100390.70
2018-04-15T12:09:37.873Z,100394.82
2018-04-15T12:12:05.455Z,100398.39
2018-04-15T12:14:33.081Z,100395.98
2018-04-15T12:17:00.753Z,100381.38
2018-04-15T12:19:28.320Z,100375.13
2018-04-15T12:21:55.885Z,100373.09
2018-04-15T12:24:23.452Z,100364.91
2018-04-15T12:26:51.021Z,100367.94
2018-04-15T12:29:18.575Z,100360.71
2018-04-15T12:31:46.133Z,100367.78
2018-04-15T12:34:13.744Z,100370.91
2018-04-15T12:36:41.354Z,100372.72
2018-04-15T12:39:08.969Z,100372.17
2018-04-15T12:41:36.536Z,100372.05
2018-04-15T12:44:04.096Z,100361.61
2018-04-15T12:46:31.664Z,100365.33
2018-04-15T12:48:59.224Z,100367.48
2018-04-15T12:51:26.901Z,100360.23
2018-04-15T12:53:54.535Z,100362.31
2018-04-15T12:56:22.162Z,100362.41
2018-04-15T12:58:49.729Z,100364.15
2018-04-15T13:01:17.345Z,100355.11
2018-04-15T13:03:44.986Z,100350.27
2018-04-15T13:06:12.549Z,100348.68
2018-04-15T13:08:40.217Z,100346.11
2018-04-15T13:11:07.777Z,100352.19
2018-04-15T13:13:35.318Z,100342.44
2018-04-15T13:16:02.953Z,100343.39
2018-04-15T13:18:30.568Z,100347.08
2018-04-15T13:20:58.140Z,100338.28
2018-04-15T13:23:25.757Z,100339.72
2018-04-15T13:25:53.414Z,100340.12
2018-04-15T13:28:20.980Z,100328.27
2018-04-15T13:30:48.538Z,100328.16
2018-04-15T13:33:16.175Z,100334.77
2018-04-15T13:35:43.745Z,100330.90
2018-04-15T13:38:11.373Z,100337.22
2018-04-15T13:40:38.935Z,100333.17
2018-04-15T13:43:06.554Z,100331.88
2018-04-15T13:45:34.148Z,100331.92
2018-04-15T13:48:01.749Z,100330.55
2018-04-15T13:50:29.386Z,100331.43
2018-04-15T13:52:56.946Z,100320.08
2018-04-15T13:55:24.516Z,100328.45
2018-04-15T13:57:52.080Z,100319.26
2018-04-15T14:00:19.696Z,100325.77
2018-04-15T14:02:47.248Z,100325.42
2018-04-15T14:05:14.813Z,100322.76
2018-04-15T14:07:42.382Z,100322.39
2018-04-15T14:10:09.940Z,100317.03
2018-04-15T14:12:37.520Z,100315.83
2018-04-15T14:15:05.146Z,100315.62
2018-04-15T14:17:32.772Z,100310.84
2018-04-15T14:20:00.353Z,100306.46
2018-04-15T14:22:27.960Z,100302.00
2018-04-15T14:24:55.536Z,100308.92
2018-04-15T14:27:23.096Z,100302.14
2018-04-15T14:29:50.668Z,100294.78
2018-04-15T14:32:18.237Z,100298.41
2018-04-15T14:34:46.025Z,100296.75
2018-04-15T14:37:13.656Z,100299.64
2018-04-15T14:39:41.258Z,100301.98
2018-04-15T14:42:08.824Z,100294.81
2018-04-15T14:44:36.401Z,100290.81
2018-04-15T14:47:03.975Z,100290.13
2018-04-15T14:49:31.550Z,100285.16
2018-04-15T14:51:59.233Z,100291.79
2018-04-15T14:54:26.780Z,100287.39
2018-04-15T14:56:54.337Z,100282.66
2018-04-15T14:59:21.913Z,100288.16
2018-04-15T15:01:49.472Z,100287.88
2018-04-15T15:04:17.087Z,100281.11
2018-04-15T15:06:44.663Z,100276.80
2018-04-15T15:09:12.341Z,100286.30
2018-04-15T15:11:39.904Z,100289.73
2018-04-15T15:14:07.465Z,100283.09
2018-04-15T15:16:35.037Z,100286.05
2018-04-15T15:19:02.621Z,100283.00
2018-04-15T15:21:30.192Z,100286.91
2018-04-15T15:23:57.757Z,100284.23
2018-04-15T15:26:25.372Z,100282.41
2018-04-15T15:28:52.931Z,100278.60
2018-04-15T15:31:20.494Z,100282.71
2018-04-15T15:33:48.133Z,100276.83
2018-04-15T15:36:15.767Z,100284.00
2018-04-15T15:38:43.415Z,100286.16
2018-04-15T15:41:11.048Z,100288.26
2018-04-15T15:43:38.786Z,100286.12
2018-04-15T15:46:06.371Z,100280.82
2018-04-15T15:48:33.952Z,100283.85
2018-04-15T15:51:01.543Z,100283.11
2018-04-15T15:53:29.186Z,100282.23
2018-04-15T15:55:56.769Z,100279.07
2018-04-15T15:58:24.403Z,100279.80
2018-04-15T16:00:52.094Z,100284.83
2018-04-15T16:03:19.665Z,100280.83
2018-04-15T16:05:47.232Z,100287.18
2018-04-15T16:08:14.813Z,100280.36
2018-04-15T16:10:42.437Z,100286.02
2018-04-15T16:13:10.073Z,100285.35
2018-04-15T16:15:37.776Z,100289.83
2018-04-15T16:18:05.402Z,100292.66
2018-04-15T16:20:32.984Z,100288.32
2018-04-15T16:23:00.549Z,100284.08
2018-04-15T16:25:28.177Z,100276.27
2018-04-15T16:27:55.750Z,100280.89
2018-04-15T16:30:23.376Z,100288.34
2018-04-15T16:32:50.937Z,100290.00
2018-04-15T16:35:18.567Z,100295.71
2018-04-15T16:37:46.156Z,100293.63
2018-04-15T16:40:13.721Z,100299.98
2018-04-15T16:42:41.389Z,100298.87
2018-04-15T16:45:08.957Z,100298.30
2018-04-15T16:47:36.648Z,100301.13
2018-04-15T16:50:04.322Z,100302.08
2018-04-15T16:52:31.951Z,100302.39
2018-04-15T16:54:59.543Z,100300.44
2018-04-15T16:57:27.108Z,100306.89
2018-04-15T16:59:54.748Z,100315.64
2018-04-15T17:02:22.388Z,100307.84
2018-04-15T17:04:49.957Z,100309.69
2018-04-15T17:07:17.613Z,100317.08
2018-04-15T17:09:45.241Z,100321.87
2018-04-15T17:12:12.821Z,100319.94
2018-04-15T17:14:40.388Z,100319.47
2018-04-15T17:17:08.093Z,100321.36
2018-04-15T17:19:35.658Z,100320.00
2018-04-15T17:22:03.216Z,100323.30
2018-04-15T17:24:30.788Z,100324.19
2018-04-15T17:26:58.408Z,100332.09
2018-04-15T17:29:25.983Z,100328.29
2018-04-15T17:31:53.556Z,100323.23
2018-04-15T17:34:21.317Z,100330.15
2018-04-15T17:36:48.955Z,100331.02
2018-04-15T17:39:16.520Z,100333.64
2018-04-15T17:41:44.167Z,100333.49
2018-04-15T17:44:11.733Z,100335.69
2018-04-15T17:46:39.309Z,100332.84
2018-04-15T17:49:06.884Z,100339.19
2018-04-15T17:51:34.557Z,100343.09
2018-04-15T17:54:02.121Z,100344.05
2018-04-15T17:56:29.749Z,100348.80
2018-04-15T17:58:57.377Z,100354.79
2018-04-15T18:01:24.920Z,100355.13
2018-04-15T18:03:52.500Z,100355.62
2018-04-15T18:06:20.072Z,100358.16
2018-04-15T18:08:47.778Z,100360.96
2018-04-15T18:11:15.346Z,100363.73
2018-04-15T18:13:42.931Z,100358.03
2018-04-15T18:16:10.508Z,100355.75
2018-04-15T18:18:38.068Z,100357.53
2018-04-15T18:21:05.704Z,100351.68
2018-04-15T18:23:33.281Z,100354.81
2018-04-15T18:26:00.858Z,100349.72
2018-04-15T18:28:28.503Z,100347.19
2018-04-15T18:30:56.171Z,100349.16
2018-04-15T18:33:23.749Z,100348.86
2018-04-15T18:35:51.312Z,100349.53
2018-04-15T18:38:18.984Z,100348.53
2018-04-15T18:40:46.553Z,100340.48
2018-04-15T18:43:14.125Z,100336.30
2018-04-15T18:45:41.705Z,100326.20
2018-04-15T18:48:09.272Z,100329.55
2018-04-15T18:50:36.945Z,100321.27
2018-04-15T18:53:04.596Z,100315.86
2018-04-15T18:55:32.147Z,100314.05
2018-04-15T18:57:59.722Z,100309.39
2018-04-15T19:00:27.290Z,100303.41
2018-04-15T19:02:54.921Z,100307.86
2018-04-15T19:05:22.507Z,100303.47
2018-04-15T19:07:50.136Z,100305.01
2018-04-15T19:10:17.697Z,100315.09
2018-04-15T19:12:45.276Z,100322.55
2018-04-15T19:15:12.844Z,100321.22
2018-04-15T19:17:40.408Z,100334.31
2018-04-15T19:20:08.009Z,100333.86
2018-04-15T19:22:35.558Z,100331.88
2018-04-15T19:25:03.136Z,100327.56
2018-04-15T19:27:30.697Z,100326.67
2018-04-15T19:29:58.346Z,100331.16
2018-04-15T19:32:25.925Z,100328.41
2018-04-15T19:34:53.547Z,100335.28
2018-04-15T19:37:21.131Z,100337.45
2018-04-15T19:39:48.695Z,100335.95
2018-04-15T19:42:16.333Z,100325.98
2018-04-15T19:44:43.913Z,100326.52
2018-04-15T19:47:11.480Z,100317.73
2018-04-15T19:49:39.066Z,100321.38
2018-04-15T19:52:06.739Z,100330.54
2018-04-15T19:54:34.387Z,100328.14
2018-04-15T19:57:01.961Z,100329.05
2018-04-15T19:59:29.611Z,100331.23
2018-04-15T20:01:57.285Z,100321.98
2018-04-15T20:04:24.865Z,100326.18
2018-04-15T20:06:52.501Z,100322.68
2018-04-15T20:09:20.069Z,100315.75
2018-04-15T20:11:47.644Z,100319.16
2018-04-15T20:14:15.229Z,100324.88
2018-04-15T20:16:42.864Z,100325.82
2018-04-15T20:19:10.458Z,100323.07
2018-04-15T20:21:38.130Z,100319.66
2018-04-15T20:24:05.759Z,100311.69
2018-04-15T20:26:33.330Z,100318.61
2018-04-15T20:29:00.905Z,100316.73
2018-04-15T20:31:28.468Z,100310.52
2018-04-15T20:33:56.028Z,100309.86
2018-04-15T20:36:23.602Z,100309.55
2018-04-15T20:38:51.168Z,100305.52
2018-04-15T20:41:18.853Z,100300.20
2018-04-15T20:43:46.516Z,100300.45
2018-04-15T20:46:14.085Z,100299.16
2018-04-15T20:48:41.718Z,100295.26
2018-04-15T20:51:09.333Z,100293.21
2018-04-15T20:53:36.998Z,100290.08
2018-04-15T20:56:04.661Z,100290.97
2018-04-15T20:58:32.230Z,100285.53
2018-04-15T21:00:59.809Z,100280.61
2018-04-15T21:03:27.377Z,100287.14
2018-04-15T21:05:54.976Z,100285.58
2018-04-15T21:08:22.544Z,100289.55
2018-04-15T21:10:50.148Z,100287.67
2018-04-15T21:13:17.721Z,100284.54
2018-04-15T21:15:45.288Z,100269.83
2018-04-15T21:18:12.925Z,100277.36
2018-04-15T21:20:40.493Z,100272.97
2018-04-15T21:23:08.122Z,100264.58
2018-04-15T21:25:35.693Z,100262.44
2018-04-15T21:28:03.257Z,100253.17
2018-04-15T21:30:30.898Z,100257.87
2018-04-15T21:32:58.473Z,100251.90
2018-04-15T21:35:26.047Z,100259.91
2018-04-15T21:37:53.681Z,100257.75
2018-04-15T21:40:21.326Z,100262.45
2018-04-15T21:42:48.966Z,100264.16
2018-04-15T21:45:16.536Z,100260.11
2018-04-15T21:47:44.124Z,100248.39
2018-04-15T21:50:11.838Z,100243.86
2018-04-15T21:52:39.497Z,100246.30
2018-04-15T21:55:07.057Z,100249.92
2018-04-15T21:57:34.601Z,100261.13
2018-04-15T22:00:02.193Z,100254.89
2018-04-15T22:02:29.808Z,100252.91
2018-04-15T22:04:57.405Z,100258.45
2018-04-15T22:07:25.046Z,100253.84
2018-04-15T22:09:52.613Z,100247.88
2018-04-15T22:12:20.249Z,100241.28
2018-04-15T22:14:47.861Z,100233.64
2018-04-15T22:17:15.489Z,100232.91
2018-04-15T22:19:43.065Z,100225.94
2018-04-15T22:22:10.636Z,100221.56
2018-04-15T22:24:38.260Z,100233.48
2018-04-15T22:27:05.930Z,100232.76
2018-04-15T22:29:33.502Z,100242.86
2018-04-15T22:32:01.085Z,100250.19
2018-04-15T22:34:28.709Z,100241.50
2018-04-15T22:36:56.325Z,100240.52
2018-04-15T22:39:23.898Z,100242.12
2018-04-15T22:41:51.442Z,100239.92
2018-04-15T22:44:19.065Z,100241.92
2018-04-15T22:46:46.686Z,100236.91
2018-04-15T22:49:19.850Z,100238.79
2018-04-15T22:51:47.426Z,100242.91
2018-04-15T22:54:15.060Z,100241.91
2018-04-15T22:56:43.625Z,100244.98
2018-04-15T22:59:11.267Z,100241.84
2018-04-15T23:01:38.905Z,100240.91
2018-04-15T23:04:06.552Z,100239.69
2018-04-15T23:06:34.136Z,100235.75
2018-04-15T23:09:01.759Z,100227.06
2018-04-15T23:11:29.327Z,100226.44
2018-04-15T23:13:56.983Z,100220.72
2018-04-15T23:16:24.653Z,100213.92
2018-04-15T23:18:52.278Z,100218.73
2018-04-15T23:21:19.843Z,100223.67
2018-04-15T23:23:47.470Z,100214.05
2018-04-15T23:26:15.177Z,100219.83
2018-04-15T23:28:42.747Z,100206.16
2018-04-15T23:31:10.357Z,100201.12
2018-04-15T23:33:37.978Z,100203.18
2018-04-15T23:36:05.599Z,100202.66
2018-04-15T23:38:33.169Z,100203.08
2018-04-15T23:41:00.811Z,100207.99
2018-04-15T23:43:28.484Z,100199.31
2018-04-15T23:45:56.105Z,100195.79
2018-04-15T23:48:23.707Z,100198.92
2018-04-15T23:50:51.327Z,100197.25
2018-04-15T23:53:18.952Z,100191.42
2018-04-15T23:55:46.582Z,100189.77
2018-04-15T23:58:14.147Z,100200.22
